sensor_id;sensor_type;location;lat;lon;timestamp;P1;durP1;ratioP1;P2;durP2;ratioP2
79361;SDS011;68830;47.566;19.012;2023-08-17T00:01:34;20.70;;;17.98;;
79361;SDS011;68830;47.566;19.012;2023-08-17T00:04:37;20.33;;;18.45;;
79361;SDS011;68830;47.566;19.012;2023-08-17T00:07:39;21.65;;;19.65;;
79361;SDS011;68830;47.566;19.012;2023-08-17T00:10:42;19.90;;;18.17;;
79361;SDS011;68830;47.566;19.012;2023-08-17T00:13:44;20.25;;;18.55;;
79361;SDS011;68830;47.566;19.012;2023-08-17T00:16:46;19.33;;;17.52;;
79361;SDS011;68830;47.566;19.012;2023-08-17T00:19:49;20.88;;;18.88;;
79361;SDS011;68830;47.566;19.012;2023-08-17T00:22:51;20.17;;;18.08;;
79361;SDS011;68830;47.566;19.012;2023-08-17T00:25:54;21.63;;;19.25;;
79361;SDS011;68830;47.566;19.012;2023-08-17T00:28:58;21.40;;;19.17;;
79361;SDS011;68830;47.566;19.012;2023-08-17T00:32:00;19.52;;;17.55;;
79361;SDS011;68830;47.566;19.012;2023-08-17T00:35:03;20.23;;;18.48;;
79361;SDS011;68830;47.566;19.012;2023-08-17T00:38:06;19.10;;;17.00;;
79361;SDS011;68830;47.566;19.012;2023-08-17T00:41:09;19.38;;;17.42;;
79361;SDS011;68830;47.566;19.012;2023-08-17T00:44:12;20.98;;;18.20;;
79361;SDS011;68830;47.566;19.012;2023-08-17T00:47:14;19.90;;;17.90;;
79361;SDS011;68830;47.566;19.012;2023-08-17T00:50:17;19.90;;;18.08;;
79361;SDS011;68830;47.566;19.012;2023-08-17T00:53:19;22.83;;;20.27;;
79361;SDS011;68830;47.566;19.012;2023-08-17T00:56:23;22.08;;;19.77;;
79361;SDS011;68830;47.566;19.012;2023-08-17T00:59:26;18.13;;;16.27;;
79361;SDS011;68830;47.566;19.012;2023-08-17T01:02:36;20.23;;;18.25;;
79361;SDS011;68830;47.566;19.012;2023-08-17T01:05:39;20.00;;;18.15;;
79361;SDS011;68830;47.566;19.012;2023-08-17T01:08:41;18.98;;;16.98;;
79361;SDS011;68830;47.566;19.012;2023-08-17T01:11:47;18.48;;;16.67;;
79361;SDS011;68830;47.566;19.012;2023-08-17T01:14:58;19.73;;;17.17;;
79361;SDS011;68830;47.566;19.012;2023-08-17T01:18:17;19.90;;;17.88;;
79361;SDS011;68830;47.566;19.012;2023-08-17T01:21:28;19.40;;;17.42;;
79361;SDS011;68830;47.566;19.012;2023-08-17T01:24:39;19.05;;;17.25;;
79361;SDS011;68830;47.566;19.012;2023-08-17T01:27:44;17.88;;;16.08;;
79361;SDS011;68830;47.566;19.012;2023-08-17T01:30:49;17.27;;;15.75;;
79361;SDS011;68830;47.566;19.012;2023-08-17T01:34:00;19.08;;;16.48;;
79361;SDS011;68830;47.566;19.012;2023-08-17T01:37:07;17.98;;;16.25;;
79361;SDS011;68830;47.566;19.012;2023-08-17T01:40:13;17.45;;;15.85;;
79361;SDS011;68830;47.566;19.012;2023-08-17T01:43:16;18.45;;;16.52;;
79361;SDS011;68830;47.566;19.012;2023-08-17T01:46:18;18.58;;;16.77;;
79361;SDS011;68830;47.566;19.012;2023-08-17T01:49:21;18.70;;;16.60;;
79361;SDS011;68830;47.566;19.012;2023-08-17T01:52:23;18.63;;;16.02;;
79361;SDS011;68830;47.566;19.012;2023-08-17T01:55:29;18.83;;;16.88;;
79361;SDS011;68830;47.566;19.012;2023-08-17T01:58:31;17.48;;;15.85;;
79361;SDS011;68830;47.566;19.012;2023-08-17T02:01:34;19.27;;;17.40;;
79361;SDS011;68830;47.566;19.012;2023-08-17T02:04:36;18.33;;;16.52;;
79361;SDS011;68830;47.566;19.012;2023-08-17T02:07:38;18.95;;;17.25;;
79361;SDS011;68830;47.566;19.012;2023-08-17T02:10:41;18.98;;;17.25;;
79361;SDS011;68830;47.566;19.012;2023-08-17T02:13:43;18.40;;;16.77;;
79361;SDS011;68830;47.566;19.012;2023-08-17T02:16:45;19.85;;;17.90;;
79361;SDS011;68830;47.566;19.012;2023-08-17T02:19:47;20.48;;;18.50;;
79361;SDS011;68830;47.566;19.012;2023-08-17T02:22:49;19.40;;;17.60;;
79361;SDS011;68830;47.566;19.012;2023-08-17T02:25:52;20.40;;;18.17;;
79361;SDS011;68830;47.566;19.012;2023-08-17T02:28:55;19.60;;;17.83;;
79361;SDS011;68830;47.566;19.012;2023-08-17T02:31:57;20.08;;;18.23;;
79361;SDS011;68830;47.566;19.012;2023-08-17T02:34:59;19.92;;;18.05;;
79361;SDS011;68830;47.566;19.012;2023-08-17T02:38:00;19.30;;;17.25;;
79361;SDS011;68830;47.566;19.012;2023-08-17T02:41:04;18.90;;;17.08;;
79361;SDS011;68830;47.566;19.012;2023-08-17T02:44:06;17.48;;;15.68;;
79361;SDS011;68830;47.566;19.012;2023-08-17T02:47:08;17.85;;;16.10;;
79361;SDS011;68830;47.566;19.012;2023-08-17T02:50:10;19.50;;;17.83;;
79361;SDS011;68830;47.566;19.012;2023-08-17T02:53:13;19.58;;;17.58;;
79361;SDS011;68830;47.566;19.012;2023-08-17T02:56:16;19.63;;;17.63;;
79361;SDS011;68830;47.566;19.012;2023-08-17T02:59:19;17.85;;;16.17;;
79361;SDS011;68830;47.566;19.012;2023-08-17T03:02:21;19.38;;;16.10;;
79361;SDS011;68830;47.566;19.012;2023-08-17T03:05:22;17.17;;;15.68;;
79361;SDS011;68830;47.566;19.012;2023-08-17T03:08:24;17.63;;;15.93;;
79361;SDS011;68830;47.566;19.012;2023-08-17T03:11:28;16.85;;;15.20;;
79361;SDS011;68830;47.566;19.012;2023-08-17T03:14:30;16.50;;;15.00;;
79361;SDS011;68830;47.566;19.012;2023-08-17T03:17:32;17.58;;;15.93;;
79361;SDS011;68830;47.566;19.012;2023-08-17T03:20:34;18.02;;;15.70;;
79361;SDS011;68830;47.566;19.012;2023-08-17T03:23:36;16.42;;;14.93;;
79361;SDS011;68830;47.566;19.012;2023-08-17T03:26:39;18.13;;;14.65;;
79361;SDS011;68830;47.566;19.012;2023-08-17T03:29:42;17.30;;;15.43;;
79361;SDS011;68830;47.566;19.012;2023-08-17T03:32:44;16.88;;;15.35;;
79361;SDS011;68830;47.566;19.012;2023-08-17T03:35:45;15.88;;;14.48;;
79361;SDS011;68830;47.566;19.012;2023-08-17T03:38:48;16.77;;;13.68;;
79361;SDS011;68830;47.566;19.012;2023-08-17T03:41:51;16.45;;;14.60;;
79361;SDS011;68830;47.566;19.012;2023-08-17T03:44:54;15.95;;;14.63;;
79361;SDS011;68830;47.566;19.012;2023-08-17T03:47:56;15.80;;;14.25;;
79361;SDS011;68830;47.566;19.012;2023-08-17T03:50:58;18.73;;;15.05;;
79361;SDS011;68830;47.566;19.012;2023-08-17T03:54:01;17.75;;;15.85;;
79361;SDS011;68830;47.566;19.012;2023-08-17T03:57:04;22.33;;;15.18;;
79361;SDS011;68830;47.566;19.012;2023-08-17T04:00:07;17.88;;;15.93;;
79361;SDS011;68830;47.566;19.012;2023-08-17T04:03:11;16.45;;;14.82;;
79361;SDS011;68830;47.566;19.012;2023-08-17T04:06:13;18.40;;;16.60;;
79361;SDS011;68830;47.566;19.012;2023-08-17T04:09:16;17.15;;;15.23;;
79361;SDS011;68830;47.566;19.012;2023-08-17T04:12:19;18.10;;;15.40;;
79361;SDS011;68830;47.566;19.012;2023-08-17T04:15:22;17.35;;;15.82;;
79361;SDS011;68830;47.566;19.012;2023-08-17T04:18:23;15.88;;;14.38;;
79361;SDS011;68830;47.566;19.012;2023-08-17T04:21:26;20.25;;;15.27;;
79361;SDS011;68830;47.566;19.012;2023-08-17T04:24:28;15.00;;;13.52;;
79361;SDS011;68830;47.566;19.012;2023-08-17T04:27:31;17.13;;;14.10;;
79361;SDS011;68830;47.566;19.012;2023-08-17T04:30:33;15.20;;;13.70;;
79361;SDS011;68830;47.566;19.012;2023-08-17T04:33:36;16.38;;;14.68;;
79361;SDS011;68830;47.566;19.012;2023-08-17T04:36:38;15.15;;;13.63;;
79361;SDS011;68830;47.566;19.012;2023-08-17T04:39:40;14.40;;;13.10;;
79361;SDS011;68830;47.566;19.012;2023-08-17T04:42:46;14.27;;;12.98;;
79361;SDS011;68830;47.566;19.012;2023-08-17T04:45:48;14.82;;;13.45;;
79361;SDS011;68830;47.566;19.012;2023-08-17T04:48:50;13.27;;;11.95;;
79361;SDS011;68830;47.566;19.012;2023-08-17T04:51:53;13.60;;;12.25;;
79361;SDS011;68830;47.566;19.012;2023-08-17T04:54:55;13.52;;;12.15;;
79361;SDS011;68830;47.566;19.012;2023-08-17T04:57:59;13.50;;;12.18;;
79361;SDS011;68830;47.566;19.012;2023-08-17T05:01:01;14.60;;;13.02;;
79361;SDS011;68830;47.566;19.012;2023-08-17T05:04:04;14.15;;;12.45;;
79361;SDS011;68830;47.566;19.012;2023-08-17T05:07:07;13.60;;;12.30;;
79361;SDS011;68830;47.566;19.012;2023-08-17T05:10:10;13.73;;;11.98;;
79361;SDS011;68830;47.566;19.012;2023-08-17T05:13:13;14.38;;;13.00;;
79361;SDS011;68830;47.566;19.012;2023-08-17T05:16:15;14.77;;;12.73;;
79361;SDS011;68830;47.566;19.012;2023-08-17T05:19:17;16.15;;;14.55;;
79361;SDS011;68830;47.566;19.012;2023-08-17T05:22:19;14.80;;;13.60;;
79361;SDS011;68830;47.566;19.012;2023-08-17T05:25:21;14.50;;;13.07;;
79361;SDS011;68830;47.566;19.012;2023-08-17T05:28:25;15.50;;;12.50;;
79361;SDS011;68830;47.566;19.012;2023-08-17T05:31:27;12.77;;;11.57;;
79361;SDS011;68830;47.566;19.012;2023-08-17T05:34:29;13.65;;;12.27;;
79361;SDS011;68830;47.566;19.012;2023-08-17T05:37:31;16.27;;;14.70;;
79361;SDS011;68830;47.566;19.012;2023-08-17T05:40:34;14.95;;;13.65;;
79361;SDS011;68830;47.566;19.012;2023-08-17T05:43:38;14.02;;;12.68;;
79361;SDS011;68830;47.566;19.012;2023-08-17T05:46:40;15.30;;;12.35;;
79361;SDS011;68830;47.566;19.012;2023-08-17T05:49:42;14.48;;;13.05;;
79361;SDS011;68830;47.566;19.012;2023-08-17T05:52:44;17.70;;;13.27;;
79361;SDS011;68830;47.566;19.012;2023-08-17T05:55:46;13.60;;;12.13;;
79361;SDS011;68830;47.566;19.012;2023-08-17T05:58:50;13.10;;;11.90;;
79361;SDS011;68830;47.566;19.012;2023-08-17T06:01:52;13.63;;;12.38;;
79361;SDS011;68830;47.566;19.012;2023-08-17T06:04:54;13.73;;;12.35;;
79361;SDS011;68830;47.566;19.012;2023-08-17T06:07:56;16.38;;;14.98;;
79361;SDS011;68830;47.566;19.012;2023-08-17T06:10:59;13.23;;;11.98;;
79361;SDS011;68830;47.566;19.012;2023-08-17T06:14:03;12.20;;;11.15;;
79361;SDS011;68830;47.566;19.012;2023-08-17T06:17:05;12.55;;;10.13;;
79361;SDS011;68830;47.566;19.012;2023-08-17T06:20:09;12.85;;;11.85;;
79361;SDS011;68830;47.566;19.012;2023-08-17T06:23:12;12.77;;;11.68;;
79361;SDS011;68830;47.566;19.012;2023-08-17T06:26:14;11.27;;;10.32;;
79361;SDS011;68830;47.566;19.012;2023-08-17T06:29:17;12.23;;;11.32;;
79361;SDS011;68830;47.566;19.012;2023-08-17T06:32:20;11.57;;;9.07;;
79361;SDS011;68830;47.566;19.012;2023-08-17T06:35:22;8.93;;;8.20;;
79361;SDS011;68830;47.566;19.012;2023-08-17T06:38:24;9.88;;;8.90;;
79361;SDS011;68830;47.566;19.012;2023-08-17T06:41:26;9.82;;;8.80;;
79361;SDS011;68830;47.566;19.012;2023-08-17T06:44:29;10.95;;;8.93;;
79361;SDS011;68830;47.566;19.012;2023-08-17T06:47:32;10.70;;;9.05;;
79361;SDS011;68830;47.566;19.012;2023-08-17T06:50:34;10.93;;;9.93;;
79361;SDS011;68830;47.566;19.012;2023-08-17T06:53:36;11.40;;;10.25;;
79361;SDS011;68830;47.566;19.012;2023-08-17T06:56:38;11.13;;;8.77;;
79361;SDS011;68830;47.566;19.012;2023-08-17T06:59:41;10.23;;;8.98;;
79361;SDS011;68830;47.566;19.012;2023-08-17T07:02:43;12.27;;;11.18;;
79361;SDS011;68830;47.566;19.012;2023-08-17T07:05:54;12.20;;;10.98;;
79361;SDS011;68830;47.566;19.012;2023-08-17T07:08:57;12.50;;;11.30;;
79361;SDS011;68830;47.566;19.012;2023-08-17T07:11:59;10.48;;;9.55;;
79361;SDS011;68830;47.566;19.012;2023-08-17T07:15:04;12.27;;;10.35;;
79361;SDS011;68830;47.566;19.012;2023-08-17T07:18:07;12.55;;;11.35;;
79361;SDS011;68830;47.566;19.012;2023-08-17T07:21:09;13.27;;;11.77;;
79361;SDS011;68830;47.566;19.012;2023-08-17T07:24:11;12.27;;;11.10;;
79361;SDS011;68830;47.566;19.012;2023-08-17T07:27:14;11.63;;;10.60;;
79361;SDS011;68830;47.566;19.012;2023-08-17T07:30:18;11.38;;;10.25;;
79361;SDS011;68830;47.566;19.012;2023-08-17T07:33:20;12.40;;;11.27;;
79361;SDS011;68830;47.566;19.012;2023-08-17T07:36:22;12.40;;;11.20;;
79361;SDS011;68830;47.566;19.012;2023-08-17T07:39:24;12.75;;;11.63;;
79361;SDS011;68830;47.566;19.012;2023-08-17T07:42:26;13.50;;;12.40;;
79361;SDS011;68830;47.566;19.012;2023-08-17T07:45:30;13.25;;;11.88;;
79361;SDS011;68830;47.566;19.012;2023-08-17T07:48:32;13.63;;;12.63;;
79361;SDS011;68830;47.566;19.012;2023-08-17T07:51:35;12.82;;;11.73;;
79361;SDS011;68830;47.566;19.012;2023-08-17T07:54:37;12.80;;;11.63;;
79361;SDS011;68830;47.566;19.012;2023-08-17T07:57:40;12.68;;;11.48;;
79361;SDS011;68830;47.566;19.012;2023-08-17T08:00:44;13.20;;;11.90;;
79361;SDS011;68830;47.566;19.012;2023-08-17T08:03:46;13.43;;;12.13;;
79361;SDS011;68830;47.566;19.012;2023-08-17T08:06:48;12.80;;;11.77;;
79361;SDS011;68830;47.566;19.012;2023-08-17T08:09:50;14.38;;;13.10;;
79361;SDS011;68830;47.566;19.012;2023-08-17T08:12:52;41.55;;;17.10;;
79361;SDS011;68830;47.566;19.012;2023-08-17T08:15:55;14.93;;;13.65;;
79361;SDS011;68830;47.566;19.012;2023-08-17T08:18:58;13.70;;;12.45;;
79361;SDS011;68830;47.566;19.012;2023-08-17T08:22:00;14.20;;;13.05;;
79361;SDS011;68830;47.566;19.012;2023-08-17T08:25:04;12.95;;;11.75;;
79361;SDS011;68830;47.566;19.012;2023-08-17T08:28:06;12.73;;;11.40;;
79361;SDS011;68830;47.566;19.012;2023-08-17T08:31:09;12.05;;;10.05;;
79361;SDS011;68830;47.566;19.012;2023-08-17T08:34:11;31.02;;;27.13;;
79361;SDS011;68830;47.566;19.012;2023-08-17T08:37:13;11.82;;;10.77;;
79361;SDS011;68830;47.566;19.012;2023-08-17T08:40:17;8.70;;;7.93;;
79361;SDS011;68830;47.566;19.012;2023-08-17T08:43:19;8.05;;;7.25;;
79361;SDS011;68830;47.566;19.012;2023-08-17T08:46:23;8.40;;;7.60;;
79361;SDS011;68830;47.566;19.012;2023-08-17T08:49:31;9.27;;;8.38;;
79361;SDS011;68830;47.566;19.012;2023-08-17T08:52:44;8.25;;;7.55;;
79361;SDS011;68830;47.566;19.012;2023-08-17T08:55:53;7.80;;;7.10;;
79361;SDS011;68830;47.566;19.012;2023-08-17T08:59:00;5.50;;;5.00;;
79361;SDS011;68830;47.566;19.012;2023-08-17T09:02:05;5.15;;;4.75;;
79361;SDS011;68830;47.566;19.012;2023-08-17T09:05:14;4.28;;;3.47;;
79361;SDS011;68830;47.566;19.012;2023-08-17T09:08:21;4.63;;;3.65;;
79361;SDS011;68830;47.566;19.012;2023-08-17T09:11:27;5.65;;;5.10;;
79361;SDS011;68830;47.566;19.012;2023-08-17T09:14:28;5.03;;;4.55;;
79361;SDS011;68830;47.566;19.012;2023-08-17T09:17:32;5.65;;;5.00;;
79361;SDS011;68830;47.566;19.012;2023-08-17T09:20:38;4.80;;;4.28;;
79361;SDS011;68830;47.566;19.012;2023-08-17T09:23:50;5.45;;;4.60;;
79361;SDS011;68830;47.566;19.012;2023-08-17T09:27:00;5.90;;;5.40;;
79361;SDS011;68830;47.566;19.012;2023-08-17T09:30:02;6.40;;;5.80;;
79361;SDS011;68830;47.566;19.012;2023-08-17T09:33:07;6.60;;;5.72;;
79361;SDS011;68830;47.566;19.012;2023-08-17T09:36:10;6.15;;;5.55;;
79361;SDS011;68830;47.566;19.012;2023-08-17T09:39:15;5.95;;;5.45;;
79361;SDS011;68830;47.566;19.012;2023-08-17T09:42:17;7.28;;;6.18;;
79361;SDS011;68830;47.566;19.012;2023-08-17T09:45:19;7.65;;;6.28;;
79361;SDS011;68830;47.566;19.012;2023-08-17T09:48:23;4.88;;;4.47;;
79361;SDS011;68830;47.566;19.012;2023-08-17T09:51:27;5.18;;;4.50;;
79361;SDS011;68830;47.566;19.012;2023-08-17T09:54:30;5.82;;;5.00;;
79361;SDS011;68830;47.566;19.012;2023-08-17T09:57:32;5.25;;;4.68;;
79361;SDS011;68830;47.566;19.012;2023-08-17T10:00:36;6.20;;;5.07;;
79361;SDS011;68830;47.566;19.012;2023-08-17T10:03:42;6.82;;;6.15;;
79361;SDS011;68830;47.566;19.012;2023-08-17T10:06:51;7.43;;;5.50;;
79361;SDS011;68830;47.566;19.012;2023-08-17T10:09:59;18.88;;;6.30;;
79361;SDS011;68830;47.566;19.012;2023-08-17T10:13:07;6.65;;;5.72;;
79361;SDS011;68830;47.566;19.012;2023-08-17T10:16:16;5.75;;;5.25;;
79361;SDS011;68830;47.566;19.012;2023-08-17T10:19:36;6.03;;;5.43;;
79361;SDS011;68830;47.566;19.012;2023-08-17T10:22:51;8.82;;;7.82;;
79361;SDS011;68830;47.566;19.012;2023-08-17T10:25:57;6.50;;;5.65;;
79361;SDS011;68830;47.566;19.012;2023-08-17T10:29:02;6.30;;;5.70;;
79361;SDS011;68830;47.566;19.012;2023-08-17T10:32:15;6.28;;;5.72;;
79361;SDS011;68830;47.566;19.012;2023-08-17T10:35:19;15.32;;;11.57;;
79361;SDS011;68830;47.566;19.012;2023-08-17T10:38:22;6.43;;;5.82;;
79361;SDS011;68830;47.566;19.012;2023-08-17T10:41:24;5.35;;;4.90;;
79361;SDS011;68830;47.566;19.012;2023-08-17T10:44:38;5.25;;;4.75;;
79361;SDS011;68830;47.566;19.012;2023-08-17T10:47:45;5.75;;;5.25;;
79361;SDS011;68830;47.566;19.012;2023-08-17T10:50:59;5.47;;;4.97;;
79361;SDS011;68830;47.566;19.012;2023-08-17T10:54:05;5.55;;;5.05;;
79361;SDS011;68830;47.566;19.012;2023-08-17T11:00:35;8.05;;;4.72;;
79361;SDS011;68830;47.566;19.012;2023-08-17T11:03:38;5.22;;;4.72;;
79361;SDS011;68830;47.566;19.012;2023-08-17T11:06:44;5.57;;;4.82;;
79361;SDS011;68830;47.566;19.012;2023-08-17T11:09:48;6.82;;;4.95;;
79361;SDS011;68830;47.566;19.012;2023-08-17T11:13:01;4.47;;;4.07;;
79361;SDS011;68830;47.566;19.012;2023-08-17T11:16:03;5.60;;;4.88;;
79361;SDS011;68830;47.566;19.012;2023-08-17T11:19:07;4.82;;;4.32;;
79361;SDS011;68830;47.566;19.012;2023-08-17T11:22:15;5.80;;;4.95;;
79361;SDS011;68830;47.566;19.012;2023-08-17T11:25:26;9.38;;;5.00;;
79361;SDS011;68830;47.566;19.012;2023-08-17T11:28:33;5.93;;;5.32;;
79361;SDS011;68830;47.566;19.012;2023-08-17T11:31:43;5.53;;;5.00;;
79361;SDS011;68830;47.566;19.012;2023-08-17T11:34:45;6.80;;;5.82;;
79361;SDS011;68830;47.566;19.012;2023-08-17T11:37:49;5.28;;;4.57;;
79361;SDS011;68830;47.566;19.012;2023-08-17T11:40:51;5.28;;;4.78;;
79361;SDS011;68830;47.566;19.012;2023-08-17T11:43:53;6.82;;;5.15;;
79361;SDS011;68830;47.566;19.012;2023-08-17T11:46:57;5.32;;;4.82;;
79361;SDS011;68830;47.566;19.012;2023-08-17T11:49:59;5.80;;;5.28;;
79361;SDS011;68830;47.566;19.012;2023-08-17T11:53:21;6.00;;;5.38;;
79361;SDS011;68830;47.566;19.012;2023-08-17T11:56:23;5.72;;;4.95;;
79361;SDS011;68830;47.566;19.012;2023-08-17T11:59:25;6.32;;;5.22;;
79361;SDS011;68830;47.566;19.012;2023-08-17T12:02:31;6.63;;;4.80;;
79361;SDS011;68830;47.566;19.012;2023-08-17T12:05:33;7.35;;;4.68;;
79361;SDS011;68830;47.566;19.012;2023-08-17T12:08:36;6.78;;;5.22;;
79361;SDS011;68830;47.566;19.012;2023-08-17T12:11:38;5.28;;;4.88;;
79361;SDS011;68830;47.566;19.012;2023-08-17T12:14:41;6.10;;;5.47;;
79361;SDS011;68830;47.566;19.012;2023-08-17T12:17:47;5.72;;;5.20;;
79361;SDS011;68830;47.566;19.012;2023-08-17T12:20:52;6.43;;;5.03;;
79361;SDS011;68830;47.566;19.012;2023-08-17T12:23:56;6.63;;;5.10;;
79361;SDS011;68830;47.566;19.012;2023-08-17T12:26:58;6.43;;;5.03;;
79361;SDS011;68830;47.566;19.012;2023-08-17T12:30:00;5.90;;;5.38;;
79361;SDS011;68830;47.566;19.012;2023-08-17T12:33:03;5.35;;;4.85;;
79361;SDS011;68830;47.566;19.012;2023-08-17T12:36:05;5.78;;;5.25;;
79361;SDS011;68830;47.566;19.012;2023-08-17T12:39:09;6.05;;;4.85;;
79361;SDS011;68830;47.566;19.012;2023-08-17T12:42:11;6.57;;;4.65;;
79361;SDS011;68830;47.566;19.012;2023-08-17T12:45:14;5.40;;;4.97;;
79361;SDS011;68830;47.566;19.012;2023-08-17T12:48:17;5.38;;;4.80;;
79361;SDS011;68830;47.566;19.012;2023-08-17T12:51:19;5.90;;;5.15;;
79361;SDS011;68830;47.566;19.012;2023-08-17T12:54:23;5.75;;;5.25;;
79361;SDS011;68830;47.566;19.012;2023-08-17T12:57:25;9.30;;;5.25;;
79361;SDS011;68830;47.566;19.012;2023-08-17T13:00:28;5.20;;;4.70;;
79361;SDS011;68830;47.566;19.012;2023-08-17T13:03:30;7.00;;;4.72;;
79361;SDS011;68830;47.566;19.012;2023-08-17T13:06:32;5.55;;;5.05;;
79361;SDS011;68830;47.566;19.012;2023-08-17T13:09:50;6.07;;;5.47;;
79361;SDS011;68830;47.566;19.012;2023-08-17T13:12:52;6.55;;;4.80;;
79361;SDS011;68830;47.566;19.012;2023-08-17T13:16:00;6.65;;;4.90;;
79361;SDS011;68830;47.566;19.012;2023-08-17T13:19:05;6.00;;;5.40;;
79361;SDS011;68830;47.566;19.012;2023-08-17T13:22:08;5.85;;;4.50;;
79361;SDS011;68830;47.566;19.012;2023-08-17T13:25:11;5.63;;;5.03;;
79361;SDS011;68830;47.566;19.012;2023-08-17T13:28:13;6.82;;;5.40;;
79361;SDS011;68830;47.566;19.012;2023-08-17T13:31:15;5.63;;;5.10;;
79361;SDS011;68830;47.566;19.012;2023-08-17T13:34:25;5.68;;;5.10;;
79361;SDS011;68830;47.566;19.012;2023-08-17T13:37:27;8.85;;;5.80;;
79361;SDS011;68830;47.566;19.012;2023-08-17T13:40:31;7.65;;;5.07;;
79361;SDS011;68830;47.566;19.012;2023-08-17T13:43:33;5.72;;;5.15;;
79361;SDS011;68830;47.566;19.012;2023-08-17T13:46:35;6.78;;;5.72;;
79361;SDS011;68830;47.566;19.012;2023-08-17T13:49:38;5.60;;;5.13;;
79361;SDS011;68830;47.566;19.012;2023-08-17T13:52:40;5.75;;;5.25;;
79361;SDS011;68830;47.566;19.012;2023-08-17T13:55:43;6.00;;;5.53;;
79361;SDS011;68830;47.566;19.012;2023-08-17T13:58:45;5.93;;;5.25;;
79361;SDS011;68830;47.566;19.012;2023-08-17T14:01:47;6.03;;;5.43;;
79361;SDS011;68830;47.566;19.012;2023-08-17T14:04:49;5.72;;;5.10;;
79361;SDS011;68830;47.566;19.012;2023-08-17T14:07:51;6.18;;;5.57;;
79361;SDS011;68830;47.566;19.012;2023-08-17T14:10:54;6.78;;;6.03;;
79361;SDS011;68830;47.566;19.012;2023-08-17T14:13:56;6.40;;;5.80;;
79361;SDS011;68830;47.566;19.012;2023-08-17T14:16:58;7.93;;;5.63;;
79361;SDS011;68830;47.566;19.012;2023-08-17T14:20:00;6.55;;;5.95;;
79361;SDS011;68830;47.566;19.012;2023-08-17T14:23:03;5.80;;;5.30;;
79361;SDS011;68830;47.566;19.012;2023-08-17T14:26:07;10.63;;;6.10;;
79361;SDS011;68830;47.566;19.012;2023-08-17T14:29:09;8.73;;;6.20;;
79361;SDS011;68830;47.566;19.012;2023-08-17T14:32:11;6.68;;;5.93;;
79361;SDS011;68830;47.566;19.012;2023-08-17T14:35:13;7.05;;;6.38;;
79361;SDS011;68830;47.566;19.012;2023-08-17T14:38:15;6.82;;;6.15;;
79361;SDS011;68830;47.566;19.012;2023-08-17T14:41:20;36.60;;;12.93;;
79361;SDS011;68830;47.566;19.012;2023-08-17T14:44:22;8.43;;;6.68;;
79361;SDS011;68830;47.566;19.012;2023-08-17T14:47:24;8.35;;;6.22;;
79361;SDS011;68830;47.566;19.012;2023-08-17T14:50:27;8.40;;;7.47;;
79361;SDS011;68830;47.566;19.012;2023-08-17T14:53:30;8.48;;;7.60;;
79361;SDS011;68830;47.566;19.012;2023-08-17T14:56:33;8.23;;;6.25;;
79361;SDS011;68830;47.566;19.012;2023-08-17T14:59:35;7.78;;;6.97;;
79361;SDS011;68830;47.566;19.012;2023-08-17T15:02:38;7.40;;;6.65;;
79361;SDS011;68830;47.566;19.012;2023-08-17T15:05:40;8.00;;;6.40;;
79361;SDS011;68830;47.566;19.012;2023-08-17T15:08:42;7.68;;;6.28;;
79361;SDS011;68830;47.566;19.012;2023-08-17T15:11:45;8.40;;;6.65;;
79361;SDS011;68830;47.566;19.012;2023-08-17T15:14:47;10.68;;;8.63;;
79361;SDS011;68830;47.566;19.012;2023-08-17T15:17:49;28.92;;;13.55;;
79361;SDS011;68830;47.566;19.012;2023-08-17T15:20:51;10.43;;;9.32;;
79361;SDS011;68830;47.566;19.012;2023-08-17T15:23:54;18.27;;;11.85;;
79361;SDS011;68830;47.566;19.012;2023-08-17T15:26:57;12.15;;;10.80;;
79361;SDS011;68830;47.566;19.012;2023-08-17T15:29:59;10.63;;;9.20;;
79361;SDS011;68830;47.566;19.012;2023-08-17T15:33:02;9.75;;;8.52;;
79361;SDS011;68830;47.566;19.012;2023-08-17T15:36:04;11.35;;;9.30;;
79361;SDS011;68830;47.566;19.012;2023-08-17T15:39:07;9.48;;;8.70;;
79361;SDS011;68830;47.566;19.012;2023-08-17T15:42:11;10.65;;;9.38;;
79361;SDS011;68830;47.566;19.012;2023-08-17T15:45:14;9.40;;;8.50;;
79361;SDS011;68830;47.566;19.012;2023-08-17T15:48:19;11.18;;;8.65;;
79361;SDS011;68830;47.566;19.012;2023-08-17T15:51:22;10.10;;;9.20;;
79361;SDS011;68830;47.566;19.012;2023-08-17T15:54:25;9.95;;;8.90;;
79361;SDS011;68830;47.566;19.012;2023-08-17T15:57:38;10.45;;;9.18;;
79361;SDS011;68830;47.566;19.012;2023-08-17T16:00:40;9.55;;;8.75;;
79361;SDS011;68830;47.566;19.012;2023-08-17T16:03:42;10.20;;;9.25;;
79361;SDS011;68830;47.566;19.012;2023-08-17T16:06:46;9.85;;;8.95;;
79361;SDS011;68830;47.566;19.012;2023-08-17T16:09:48;9.73;;;8.82;;
79361;SDS011;68830;47.566;19.012;2023-08-17T16:12:51;10.98;;;9.85;;
79361;SDS011;68830;47.566;19.012;2023-08-17T16:15:53;10.88;;;9.80;;
79361;SDS011;68830;47.566;19.012;2023-08-17T16:18:56;9.52;;;8.50;;
79361;SDS011;68830;47.566;19.012;2023-08-17T16:22:04;9.10;;;8.20;;
79361;SDS011;68830;47.566;19.012;2023-08-17T16:25:06;9.50;;;8.57;;
79361;SDS011;68830;47.566;19.012;2023-08-17T16:28:10;9.80;;;8.95;;
79361;SDS011;68830;47.566;19.012;2023-08-17T16:31:13;10.65;;;9.45;;
79361;SDS011;68830;47.566;19.012;2023-08-17T16:34:15;10.25;;;9.20;;
79361;SDS011;68830;47.566;19.012;2023-08-17T16:40:22;9.75;;;8.82;;
79361;SDS011;68830;47.566;19.012;2023-08-17T16:43:39;9.68;;;8.70;;
79361;SDS011;68830;47.566;19.012;2023-08-17T16:46:42;10.05;;;8.88;;
79361;SDS011;68830;47.566;19.012;2023-08-17T16:49:44;11.68;;;8.70;;
79361;SDS011;68830;47.566;19.012;2023-08-17T16:52:47;9.93;;;9.10;;
79361;SDS011;68830;47.566;19.012;2023-08-17T16:55:49;10.27;;;8.65;;
79361;SDS011;68830;47.566;19.012;2023-08-17T16:58:57;10.10;;;9.02;;
79361;SDS011;68830;47.566;19.012;2023-08-17T17:02:02;10.38;;;9.38;;
79361;SDS011;68830;47.566;19.012;2023-08-17T17:05:05;9.85;;;8.95;;
79361;SDS011;68830;47.566;19.012;2023-08-17T17:08:09;10.50;;;9.70;;
79361;SDS011;68830;47.566;19.012;2023-08-17T17:11:12;11.70;;;10.50;;
79361;SDS011;68830;47.566;19.012;2023-08-17T17:14:15;11.23;;;10.23;;
79361;SDS011;68830;47.566;19.012;2023-08-17T17:17:19;11.88;;;10.88;;
79361;SDS011;68830;47.566;19.012;2023-08-17T17:20:21;11.20;;;10.10;;
79361;SDS011;68830;47.566;19.012;2023-08-17T17:23:24;11.65;;;10.75;;
79361;SDS011;68830;47.566;19.012;2023-08-17T17:26:27;11.93;;;10.75;;
79361;SDS011;68830;47.566;19.012;2023-08-17T17:29:32;11.32;;;10.32;;
79361;SDS011;68830;47.566;19.012;2023-08-17T17:32:35;11.02;;;10.13;;
79361;SDS011;68830;47.566;19.012;2023-08-17T17:35:38;11.57;;;10.57;;
79361;SDS011;68830;47.566;19.012;2023-08-17T17:38:40;10.68;;;9.68;;
79361;SDS011;68830;47.566;19.012;2023-08-17T17:41:43;11.05;;;10.15;;
79361;SDS011;68830;47.566;19.012;2023-08-17T17:44:47;10.75;;;9.65;;
79361;SDS011;68830;47.566;19.012;2023-08-17T17:47:51;10.18;;;9.27;;
79361;SDS011;68830;47.566;19.012;2023-08-17T17:50:53;11.98;;;10.88;;
79361;SDS011;68830;47.566;19.012;2023-08-17T17:53:56;11.45;;;10.38;;
79361;SDS011;68830;47.566;19.012;2023-08-17T17:56:59;11.10;;;10.05;;
79361;SDS011;68830;47.566;19.012;2023-08-17T18:00:04;10.75;;;9.85;;